createdAt,value
2018-04-22T00:01:45.053Z,6.27
2018-04-22T00:04:11.435Z,6.67
2018-04-22T00:06:37.810Z,6.63
2018-04-22T00:09:05.118Z,6.40
2018-04-22T00:11:31.504Z,5.70
2018-04-22T00:13:57.873Z,6.33
2018-04-22T00:16:24.225Z,6.37
2018-04-22T00:18:50.657Z,6.00
2018-04-22T00:21:17.021Z,5.87
2018-04-22T00:23:43.372Z,5.83
2018-04-22T00:26:09.770Z,5.57
2018-04-22T00:28:36.354Z,5.37
2018-04-22T00:31:02.806Z,5.30
2018-04-22T00:33:29.133Z,5.17
2018-04-22T00:35:55.466Z,5.23
2018-04-22T00:38:21.866Z,5.13
2018-04-22T00:40:48.224Z,5.10
2018-04-22T00:43:14.648Z,5.20
2018-04-22T00:45:41.068Z,5.07
2018-04-22T00:48:07.434Z,5.10
2018-04-22T00:50:33.806Z,4.50
2018-04-22T00:53:00.201Z,4.53
2018-04-22T00:55:26.593Z,4.77
2018-04-22T00:57:52.962Z,4.60
2018-04-22T01:00:19.382Z,4.67
2018-04-22T01:02:45.812Z,4.80
2018-04-22T01:05:12.190Z,4.73
2018-04-22T01:07:38.603Z,5.23
2018-04-22T01:10:04.937Z,5.23
2018-04-22T01:12:31.322Z,5.60
2018-04-22T01:14:57.697Z,4.83
2018-04-22T01:17:24.020Z,4.60
2018-04-22T01:19:50.436Z,5.33
2018-04-22T01:22:16.805Z,5.03
2018-04-22T01:24:43.165Z,4.90
2018-04-22T01:27:09.523Z,4.77
2018-04-22T01:29:35.833Z,4.80
2018-04-22T01:32:02.298Z,4.77
2018-04-22T01:34:28.694Z,5.33
2018-04-22T01:36:55.090Z,4.80
2018-04-22T01:39:21.469Z,4.70
2018-04-22T01:41:47.930Z,4.33
2018-04-22T01:44:14.292Z,4.40
2018-04-22T01:46:40.679Z,4.60
2018-04-22T01:49:07.101Z,4.50
2018-04-22T01:51:33.437Z,4.60
2018-04-22T01:53:59.892Z,4.60
2018-04-22T01:56:26.222Z,4.70
2018-04-22T01:58:52.594Z,4.20
2018-04-22T02:01:18.976Z,3.90
2018-04-22T02:03:45.377Z,4.13
2018-04-22T02:06:11.805Z,4.43
2018-04-22T02:08:38.257Z,3.93
2018-04-22T02:11:04.656Z,4.10
2018-04-22T02:13:31.032Z,5.03
2018-04-22T02:15:57.415Z,4.40
2018-04-22T02:18:23.920Z,4.60
2018-04-22T02:20:50.353Z,4.30
2018-04-22T02:23:16.740Z,4.20
2018-04-22T02:25:43.115Z,4.43
2018-04-22T02:28:09.601Z,4.27
2018-04-22T02:30:35.934Z,4.23
2018-04-22T02:33:02.297Z,4.40
2018-04-22T02:35:28.614Z,4.03
2018-04-22T02:37:55.010Z,4.10
2018-04-22T02:40:21.382Z,4.50
2018-04-22T02:42:47.714Z,4.63
2018-04-22T02:45:14.038Z,4.30
2018-04-22T02:47:40.426Z,4.50
2018-04-22T02:50:06.812Z,4.53
2018-04-22T02:52:33.188Z,4.77
2018-04-22T02:54:59.801Z,4.80
2018-04-22T02:57:26.172Z,4.70
2018-04-22T02:59:52.534Z,4.70
2018-04-22T03:02:18.926Z,4.40
2018-04-22T03:04:45.293Z,4.57
2018-04-22T03:07:11.660Z,4.63
2018-04-22T03:09:38.081Z,4.50
2018-04-22T03:12:04.418Z,4.23
2018-04-22T03:14:30.815Z,4.30
2018-04-22T03:16:57.289Z,4.27
2018-04-22T03:19:23.642Z,4.57
2018-04-22T03:21:49.969Z,4.83
2018-04-22T03:24:16.313Z,4.50
2018-04-22T03:26:42.697Z,4.90
2018-04-22T03:29:09.081Z,4.57
2018-04-22T03:31:35.493Z,4.93
2018-04-22T03:34:02.002Z,4.50
2018-04-22T03:36:28.362Z,5.00
2018-04-22T03:38:54.709Z,4.90
2018-04-22T03:41:21.065Z,4.83
2018-04-22T03:43:47.428Z,4.83
2018-04-22T03:46:13.853Z,5.37
2018-04-22T03:48:40.239Z,5.30
2018-04-22T03:51:06.617Z,5.67
2018-04-22T03:53:33.014Z,5.37
2018-04-22T03:55:59.365Z,5.53
2018-04-22T03:58:25.741Z,4.63
2018-04-22T04:00:52.095Z,4.97
2018-04-22T04:03:18.457Z,5.40
2018-04-22T04:05:44.829Z,5.30
2018-04-22T04:08:11.198Z,5.83
2018-04-22T04:10:37.617Z,5.67
2018-04-22T04:13:04.024Z,5.20
2018-04-22T04:15:30.393Z,5.77
2018-04-22T04:31:32.395Z,5.70
2018-04-22T04:33:58.831Z,6.43
2018-04-22T04:36:25.178Z,5.37
2018-04-22T04:38:51.538Z,6.47
2018-04-22T04:41:17.918Z,5.60
2018-04-22T04:43:44.261Z,6.23
2018-04-22T04:46:10.613Z,5.90
2018-04-22T04:48:36.984Z,6.20
2018-04-22T04:51:03.409Z,6.20
2018-04-22T04:53:29.911Z,6.43
2018-04-22T04:55:56.322Z,6.37
2018-04-22T04:58:22.775Z,7.53
2018-04-22T05:00:49.146Z,7.40
2018-04-22T05:03:15.527Z,7.17
2018-04-22T05:05:41.837Z,7.00
2018-04-22T05:08:08.184Z,6.83
2018-04-22T05:10:34.517Z,7.70
2018-04-22T05:13:00.909Z,7.63
2018-04-22T05:15:27.323Z,7.07
2018-04-22T05:17:53.730Z,6.80
2018-04-22T05:20:21.842Z,8.00
2018-04-22T05:22:48.268Z,7.17
2018-04-22T05:25:14.722Z,7.70
2018-04-22T05:27:41.308Z,8.00
2018-04-22T05:30:07.670Z,8.30
2018-04-22T05:32:34.044Z,7.63
2018-04-22T05:35:00.771Z,7.67
2018-04-22T05:37:27.117Z,6.77
2018-04-22T05:39:53.462Z,6.50
2018-04-22T05:42:20.152Z,6.10
2018-04-22T05:44:46.549Z,6.20
2018-04-22T05:47:13.080Z,6.17
2018-04-22T05:49:39.444Z,6.87
2018-04-22T05:52:05.826Z,6.20
2018-04-22T05:54:32.194Z,6.43
2018-04-22T05:56:58.540Z,6.93
2018-04-22T05:59:25.042Z,8.00
2018-04-22T06:01:51.480Z,7.03
2018-04-22T06:04:17.832Z,6.70
2018-04-22T06:06:44.270Z,6.20
2018-04-22T06:09:10.691Z,6.87
2018-04-22T06:11:37.114Z,6.43
2018-04-22T06:14:03.501Z,6.27
2018-04-22T06:16:30.384Z,6.40
2018-04-22T06:18:56.757Z,6.50
2018-04-22T06:21:23.086Z,8.20
2018-04-22T06:23:49.650Z,6.70
2018-04-22T06:26:16.034Z,8.00
2018-04-22T06:28:42.422Z,7.47
2018-04-22T06:31:08.775Z,6.53
2018-04-22T06:33:35.164Z,5.80
2018-04-22T06:36:01.545Z,5.10
2018-04-22T06:38:27.981Z,5.53
2018-04-22T06:40:54.289Z,5.17
2018-04-22T06:43:20.664Z,6.03
2018-04-22T06:45:47.038Z,5.40
2018-04-22T06:48:13.437Z,5.03
2018-04-22T06:50:39.940Z,4.73
2018-04-22T06:53:06.372Z,5.10
2018-04-22T06:55:32.738Z,5.13
2018-04-22T06:57:59.214Z,4.77
2018-04-22T07:00:25.607Z,5.03
2018-04-22T07:02:52.109Z,5.43
2018-04-22T07:05:18.505Z,5.60
2018-04-22T07:07:44.841Z,4.90
2018-04-22T07:10:11.204Z,5.37
2018-04-22T07:12:37.586Z,5.07
2018-04-22T07:15:03.952Z,5.10
2018-04-22T07:17:30.296Z,4.37
2018-04-22T07:19:56.792Z,4.57
2018-04-22T07:22:23.142Z,4.57
2018-04-22T07:24:49.545Z,4.87
2018-04-22T07:27:16.194Z,4.13
2018-04-22T07:29:42.566Z,4.43
2018-04-22T07:32:09.017Z,4.47
2018-04-22T07:34:35.419Z,4.70
2018-04-22T07:37:01.787Z,4.37
2018-04-22T07:39:28.146Z,4.10
2018-04-22T07:41:54.504Z,4.50
2018-04-22T07:44:20.855Z,3.97
2018-04-22T07:46:47.204Z,4.13
2018-04-22T07:49:13.577Z,4.17
2018-04-22T07:51:39.924Z,4.00
2018-04-22T07:54:06.389Z,3.90
2018-04-22T07:56:32.772Z,3.80
2018-04-22T07:58:59.102Z,4.67
2018-04-22T08:01:25.584Z,4.50
2018-04-22T08:03:51.951Z,8.43
2018-04-22T08:06:18.294Z,5.07
2018-04-22T08:08:44.653Z,3.80
2018-04-22T08:11:11.015Z,5.60
2018-04-22T08:13:37.444Z,4.30
2018-04-22T08:16:03.810Z,4.80
2018-04-22T08:18:30.172Z,5.60
2018-04-22T08:20:56.523Z,4.43
2018-04-22T08:23:22.865Z,4.47
2018-04-22T08:25:49.287Z,3.80
2018-04-22T08:28:15.669Z,3.63
2018-04-22T08:30:42.233Z,4.20
2018-04-22T08:33:08.919Z,4.07
2018-04-22T08:35:35.273Z,3.90
2018-04-22T08:38:01.705Z,3.80
2018-04-22T08:40:28.110Z,4.40
2018-04-22T08:42:54.478Z,3.90
2018-04-22T08:45:20.873Z,3.63
2018-04-22T08:47:47.234Z,3.73
2018-04-22T08:50:13.634Z,3.87
2018-04-22T08:52:40.037Z,3.87
2018-04-22T08:55:06.387Z,4.00
2018-04-22T08:57:32.782Z,3.80
2018-04-22T08:59:59.183Z,4.30
2018-04-22T09:02:25.533Z,4.50
2018-04-22T09:04:52.033Z,3.20
2018-04-22T09:07:18.475Z,3.53
2018-04-22T09:09:44.987Z,3.80
2018-04-22T09:12:11.448Z,4.63
2018-04-22T09:14:37.853Z,3.93
2018-04-22T09:17:04.226Z,3.50
2018-04-22T09:19:30.578Z,3.37
2018-04-22T09:21:57.017Z,3.60
2018-04-22T09:24:23.358Z,11.03
2018-04-22T09:26:49.750Z,3.73
2018-04-22T09:29:16.079Z,3.53
2018-04-22T09:31:42.477Z,3.70
2018-04-22T09:34:08.927Z,3.23
2018-04-22T09:36:35.286Z,3.83
2018-04-22T09:39:01.673Z,3.67
2018-04-22T09:41:28.186Z,3.20
2018-04-22T09:43:54.538Z,3.33
2018-04-22T09:46:20.964Z,2.87
2018-04-22T09:48:47.296Z,3.13
2018-04-22T09:51:13.677Z,3.00
2018-04-22T09:53:40.053Z,2.50
2018-04-22T09:56:06.417Z,2.67
2018-04-22T09:58:32.902Z,2.90
2018-04-22T10:01:00.281Z,3.10
2018-04-22T10:03:26.717Z,3.60
2018-04-22T10:05:53.106Z,3.20
2018-04-22T10:08:19.481Z,3.43
2018-04-22T10:10:45.839Z,3.13
2018-04-22T10:13:12.149Z,3.00
2018-04-22T10:15:38.550Z,3.40
2018-04-22T10:18:04.929Z,4.70
2018-04-22T10:20:31.414Z,3.60
2018-04-22T10:22:57.901Z,3.00
2018-04-22T10:25:24.271Z,3.30
2018-04-22T10:27:50.645Z,2.77
2018-04-22T10:30:17.103Z,3.00
2018-04-22T10:32:43.445Z,3.00
2018-04-22T10:35:09.843Z,2.90
2018-04-22T10:37:36.254Z,3.20
2018-04-22T10:40:02.721Z,3.67
2018-04-22T10:42:29.103Z,3.33
2018-04-22T10:44:55.495Z,3.03
2018-04-22T10:47:21.862Z,3.00
2018-04-22T10:49:48.349Z,3.10
2018-04-22T10:52:14.872Z,3.20
2018-04-22T10:54:41.310Z,2.83
2018-04-22T10:57:07.726Z,2.73
2018-04-22T10:59:34.095Z,3.23
2018-04-22T11:02:00.505Z,3.00
2018-04-22T11:04:26.865Z,3.10
2018-04-22T11:06:53.249Z,2.90
2018-04-22T11:09:19.642Z,3.00
2018-04-22T11:11:46.281Z,2.80
2018-04-22T11:14:12.695Z,2.63
2018-04-22T11:16:39.053Z,2.60
2018-04-22T11:19:05.411Z,2.77
2018-04-22T11:21:31.843Z,2.73
2018-04-22T11:23:58.241Z,2.80
2018-04-22T11:26:24.629Z,2.60
2018-04-22T11:28:51.026Z,2.80
2018-04-22T11:31:17.406Z,2.77
2018-04-22T11:33:43.770Z,2.47
2018-04-22T11:36:10.171Z,2.30
2018-04-22T11:38:36.534Z,2.40
2018-04-22T11:41:02.917Z,2.40
2018-04-22T11:43:29.361Z,2.50
2018-04-22T11:45:55.726Z,2.40
2018-04-22T11:48:22.105Z,3.07
2018-04-22T11:50:48.504Z,2.90
2018-04-22T11:53:14.867Z,3.50
2018-04-22T11:55:41.249Z,4.00
2018-04-22T11:58:07.627Z,3.07
2018-04-22T12:00:34.111Z,3.50
2018-04-22T12:03:00.470Z,2.77
2018-04-22T12:05:26.877Z,2.97
2018-04-22T12:07:53.253Z,3.00
2018-04-22T12:10:19.742Z,2.10
2018-04-22T12:12:46.149Z,2.80
2018-04-22T12:15:12.510Z,2.27
2018-04-22T12:17:38.878Z,2.00
2018-04-22T12:20:05.267Z,1.90
2018-04-22T12:22:31.621Z,3.10
2018-04-22T12:24:58.036Z,2.20
2018-04-22T12:27:24.394Z,2.20
2018-04-22T12:29:50.762Z,2.10
2018-04-22T12:32:17.205Z,1.97
2018-04-22T12:34:43.569Z,2.60
2018-04-22T12:37:09.941Z,2.87
2018-04-22T12:39:36.325Z,1.83
2018-04-22T12:42:02.728Z,2.50
2018-04-22T12:44:29.109Z,2.30
2018-04-22T12:46:55.473Z,2.30
2018-04-22T12:49:21.821Z,2.30
2018-04-22T12:51:48.291Z,2.50
2018-04-22T12:54:14.669Z,2.20
2018-04-22T12:56:41.017Z,2.30
2018-04-22T12:59:07.373Z,2.20
2018-04-22T13:01:33.735Z,2.20
2018-04-22T13:04:00.191Z,2.10
2018-04-22T13:06:26.542Z,2.23
2018-04-22T13:08:52.969Z,2.60
2018-04-22T13:11:19.456Z,2.20
2018-04-22T13:13:46.218Z,2.80
2018-04-22T13:16:12.614Z,3.00
2018-04-22T13:18:39.014Z,2.90
2018-04-22T13:21:05.398Z,2.23
2018-04-22T13:23:32.001Z,2.30
2018-04-22T13:25:58.346Z,2.10
2018-04-22T13:28:24.705Z,2.70
2018-04-22T13:30:51.371Z,2.17
2018-04-22T13:33:17.758Z,2.33
2018-04-22T13:35:44.173Z,2.20
2018-04-22T13:38:10.585Z,2.10
2018-04-22T13:40:36.962Z,2.53
2018-04-22T13:43:03.351Z,2.00
2018-04-22T13:45:29.758Z,2.17
2018-04-22T13:47:56.146Z,2.40
2018-04-22T13:50:22.513Z,2.70
2018-04-22T13:52:48.919Z,2.37
2018-04-22T13:55:15.331Z,2.27
2018-04-22T13:57:41.704Z,2.07
2018-04-22T14:00:08.077Z,2.40
2018-04-22T14:02:34.563Z,2.30
2018-04-22T14:05:01.090Z,2.83
2018-04-22T14:07:27.470Z,5.77
2018-04-22T14:09:53.979Z,5.13
2018-04-22T14:12:20.332Z,3.07
2018-04-22T14:14:46.790Z,3.90
2018-04-22T14:17:13.152Z,2.70
2018-04-22T14:19:39.517Z,2.93
2018-04-22T14:22:05.897Z,3.30
2018-04-22T14:24:32.286Z,3.13
2018-04-22T14:26:58.630Z,3.23
2018-04-22T14:29:25.050Z,2.33
2018-04-22T14:31:51.603Z,2.67
2018-04-22T14:34:17.950Z,2.50
2018-04-22T14:36:44.373Z,2.00
2018-04-22T14:39:10.797Z,3.20
2018-04-22T14:41:37.230Z,2.50
2018-04-22T14:44:15.845Z,2.67
2018-04-22T14:46:42.228Z,2.80
2018-04-22T14:49:08.763Z,2.80
2018-04-22T14:51:35.309Z,3.50
2018-04-22T14:54:01.662Z,2.80
2018-04-22T14:56:28.375Z,2.70
2018-04-22T14:58:54.745Z,2.90
2018-04-22T15:01:21.141Z,2.03
2018-04-22T15:03:47.502Z,2.50
2018-04-22T15:06:13.866Z,2.10
2018-04-22T15:08:40.339Z,2.50
2018-04-22T15:11:06.710Z,2.20
2018-04-22T15:13:33.125Z,2.40
2018-04-22T15:15:59.498Z,2.10
2018-04-22T15:18:25.972Z,2.37
2018-04-22T15:20:52.349Z,2.23
2018-04-22T15:23:18.755Z,2.40
2018-04-22T15:25:45.246Z,2.30
2018-04-22T15:28:11.601Z,2.50
2018-04-22T15:30:38.004Z,2.47
2018-04-22T15:33:04.381Z,2.70
2018-04-22T15:35:30.738Z,2.47
2018-04-22T15:37:57.114Z,2.70
2018-04-22T15:40:23.491Z,3.13
2018-04-22T15:42:49.898Z,5.40
2018-04-22T15:45:16.331Z,3.10
2018-04-22T15:47:42.685Z,2.60
2018-04-22T15:50:09.037Z,3.07
2018-04-22T15:52:35.407Z,2.77
2018-04-22T15:55:01.791Z,3.83
2018-04-22T15:57:28.498Z,3.13
2018-04-22T15:59:55.034Z,2.80
2018-04-22T16:02:21.364Z,3.97
2018-04-22T16:04:47.765Z,3.83
2018-04-22T16:07:14.232Z,3.47
2018-04-22T16:09:40.600Z,4.07
2018-04-22T16:12:06.929Z,3.70
2018-04-22T16:14:33.285Z,3.23
2018-04-22T16:16:59.626Z,4.30
2018-04-22T16:19:26.046Z,4.57
2018-04-22T16:21:52.420Z,4.40
2018-04-22T16:24:18.769Z,3.70
2018-04-22T16:26:45.194Z,4.17
2018-04-22T16:29:11.626Z,3.93
2018-04-22T16:31:38.333Z,5.43
2018-04-22T16:34:04.700Z,4.27
2018-04-22T16:36:31.203Z,5.47
2018-04-22T16:38:57.572Z,4.50
2018-04-22T16:41:24.023Z,3.70
2018-04-22T16:43:50.330Z,4.13
2018-04-22T16:46:16.686Z,3.90
2018-04-22T16:48:43.087Z,5.50
2018-04-22T16:51:09.465Z,8.13
2018-04-22T16:53:35.901Z,8.50
2018-04-22T16:56:02.269Z,8.50
2018-04-22T16:58:28.686Z,6.70
2018-04-22T17:00:55.050Z,4.87
2018-04-22T17:03:21.417Z,5.20
2018-04-22T17:05:47.824Z,13.63
2018-04-22T17:08:14.214Z,25.13
2018-04-22T17:10:40.597Z,18.43
2018-04-22T17:13:06.969Z,15.83
2018-04-22T17:15:33.296Z,13.97
2018-04-22T17:17:59.658Z,40.67
2018-04-22T17:20:26.011Z,27.57
2018-04-22T17:22:52.378Z,29.70
2018-04-22T17:25:18.785Z,20.73
2018-04-22T17:27:45.201Z,30.83
2018-04-22T17:30:11.659Z,17.50
2018-04-22T17:32:38.045Z,24.20
2018-04-22T17:35:04.443Z,26.97
2018-04-22T17:37:30.802Z,17.50
2018-04-22T17:39:57.181Z,21.23
2018-04-22T17:42:23.546Z,16.50
2018-04-22T17:44:49.873Z,15.17
2018-04-22T17:47:16.362Z,20.80
2018-04-22T17:49:42.758Z,30.97
2018-04-22T17:52:09.168Z,20.70
2018-04-22T17:54:35.737Z,16.90
2018-04-22T17:57:02.461Z,29.90
2018-04-22T17:59:28.822Z,36.90
2018-04-22T18:01:55.222Z,24.70
2018-04-22T18:04:21.577Z,20.37
2018-04-22T18:06:47.964Z,29.27
2018-04-22T18:09:14.341Z,9.83
2018-04-22T18:11:40.725Z,5.77
2018-04-22T18:14:07.096Z,5.63
2018-04-22T18:16:33.563Z,4.57
2018-04-22T18:18:59.996Z,4.67
2018-04-22T18:21:26.460Z,4.90
2018-04-22T18:23:52.877Z,4.13
2018-04-22T18:26:19.300Z,4.80
2018-04-22T18:28:45.661Z,4.17
2018-04-22T18:31:12.164Z,4.20
2018-04-22T18:33:38.522Z,3.77
2018-04-22T18:36:04.909Z,3.70
2018-04-22T18:38:31.315Z,4.03
2018-04-22T18:40:57.674Z,4.30
2018-04-22T18:43:24.102Z,4.07
2018-04-22T18:45:50.489Z,4.40
2018-04-22T18:48:16.873Z,4.07
2018-04-22T18:50:43.242Z,4.60
2018-04-22T18:53:09.602Z,3.87
2018-04-22T18:55:35.949Z,4.20
2018-04-22T18:58:02.343Z,3.83
2018-04-22T19:00:28.741Z,3.83
2018-04-22T19:02:55.113Z,4.10
2018-04-22T19:05:21.693Z,4.20
2018-04-22T19:07:48.031Z,4.47
2018-04-22T19:10:14.519Z,3.63
2018-04-22T19:12:40.890Z,3.97
2018-04-22T19:15:07.265Z,3.57
2018-04-22T19:17:33.646Z,4.03
2018-04-22T19:20:00.003Z,4.30
2018-04-22T19:22:26.361Z,4.23
2018-04-22T19:24:52.754Z,4.83
2018-04-22T19:27:19.212Z,3.90
2018-04-22T19:29:45.774Z,4.27
2018-04-22T19:32:12.231Z,3.57
2018-04-22T19:34:38.694Z,3.70
2018-04-22T19:37:05.066Z,3.70
2018-04-22T19:39:31.459Z,3.90
2018-04-22T19:41:57.829Z,3.70
2018-04-22T19:44:24.253Z,4.13
2018-04-22T19:46:50.737Z,3.87
2018-04-22T19:49:17.155Z,5.03
2018-04-22T19:51:44.381Z,4.73
2018-04-22T19:54:11.464Z,5.27
2018-04-22T19:56:38.644Z,5.10
2018-04-22T19:59:05.372Z,5.43
2018-04-22T20:01:31.838Z,6.03
2018-04-22T20:03:58.223Z,5.80
2018-04-22T20:06:24.606Z,5.33
2018-04-22T20:08:50.997Z,5.23
2018-04-22T20:11:17.446Z,5.50
2018-04-22T20:13:43.810Z,5.40
2018-04-22T20:16:10.243Z,4.70
2018-04-22T20:18:36.649Z,4.13
2018-04-22T20:21:03.027Z,4.17
2018-04-22T20:23:29.519Z,4.33
2018-04-22T20:25:56.184Z,4.33
2018-04-22T20:28:22.578Z,4.27
2018-04-22T20:30:48.954Z,4.20
2018-04-22T20:33:15.322Z,4.17
2018-04-22T20:35:41.794Z,4.10
2018-04-22T20:38:08.213Z,4.13
2018-04-22T20:40:34.622Z,3.80
2018-04-22T20:43:00.981Z,4.10
2018-04-22T20:45:27.406Z,3.47
2018-04-22T20:47:53.891Z,4.07
2018-04-22T20:50:20.277Z,3.60
2018-04-22T20:52:46.761Z,3.73
2018-04-22T20:55:13.174Z,3.70
2018-04-22T20:57:39.610Z,4.20
2018-04-22T21:00:06.093Z,3.50
2018-04-22T21:02:32.607Z,3.27
2018-04-22T21:04:59.050Z,3.60
2018-04-22T21:07:25.525Z,3.70
2018-04-22T21:09:51.979Z,3.50
2018-04-22T21:12:18.358Z,3.50
2018-04-22T21:14:44.717Z,3.90
2018-04-22T21:17:11.098Z,3.57
2018-04-22T21:19:37.448Z,3.90
2018-04-22T21:22:03.814Z,3.80
2018-04-22T21:24:30.189Z,4.67
2018-04-22T21:26:56.534Z,3.70
2018-04-22T21:29:22.924Z,4.40
2018-04-22T21:31:49.302Z,4.40
2018-04-22T21:34:15.703Z,4.13
2018-04-22T21:36:42.057Z,5.00
2018-04-22T21:39:08.401Z,4.87
2018-04-22T21:41:34.762Z,4.70
2018-04-22T21:44:01.179Z,5.10
2018-04-22T21:46:27.568Z,5.50
2018-04-22T21:48:53.965Z,5.03
2018-04-22T21:51:20.325Z,4.93
2018-04-22T21:53:46.705Z,4.93
2018-04-22T21:56:13.093Z,5.00
2018-04-22T21:58:39.465Z,4.80
2018-04-22T22:01:05.842Z,5.27
2018-04-22T22:03:32.453Z,5.17
2018-04-22T22:05:58.979Z,5.03
2018-04-22T22:08:25.717Z,5.33
2018-04-22T22:10:52.113Z,4.70
2018-04-22T22:13:18.453Z,4.73
2018-04-22T22:15:44.950Z,5.23
2018-04-22T22:18:11.280Z,4.80
2018-04-22T22:20:37.733Z,4.50
2018-04-22T22:23:04.090Z,5.10
2018-04-22T22:25:30.468Z,5.03
2018-04-22T22:27:56.841Z,4.80
2018-04-22T22:30:23.241Z,4.83
2018-04-22T22:32:49.614Z,4.87
2018-04-22T22:35:15.981Z,4.73
2018-04-22T22:37:42.461Z,4.90
2018-04-22T22:40:08.824Z,5.00
2018-04-22T22:42:35.324Z,4.87
2018-04-22T22:45:01.707Z,5.30
2018-04-22T22:47:28.089Z,5.20
2018-04-22T22:49:54.426Z,5.20
2018-04-22T22:52:20.777Z,5.07
2018-04-22T22:54:47.129Z,5.30
2018-04-22T22:57:13.547Z,5.03
2018-04-22T22:59:39.933Z,4.80
2018-04-22T23:02:06.341Z,4.83
2018-04-22T23:04:32.685Z,5.10
2018-04-22T23:06:59.161Z,5.60
2018-04-22T23:09:25.709Z,4.90
2018-04-22T23:11:52.116Z,5.53
2018-04-22T23:14:18.549Z,5.30
2018-04-22T23:16:44.917Z,5.27
2018-04-22T23:19:11.312Z,5.23
2018-04-22T23:21:38.022Z,4.93
2018-04-22T23:24:04.455Z,5.00
2018-04-22T23:26:30.880Z,5.37
2018-04-22T23:28:57.272Z,4.33
2018-04-22T23:31:23.687Z,5.30
2018-04-22T23:33:50.076Z,5.50
2018-04-22T23:36:16.422Z,5.20
2018-04-22T23:38:42.781Z,5.43
2018-04-22T23:41:09.141Z,5.13
2018-04-22T23:43:35.544Z,5.23
2018-04-22T23:46:01.916Z,5.17
2018-04-22T23:48:28.292Z,5.30
2018-04-22T23:50:54.613Z,5.17
2018-04-22T23:53:20.944Z,5.63
2018-04-22T23:55:47.342Z,5.03
2018-04-22T23:58:13.670Z,5.70
